NCAR-RAP Real-Time Weather Data

Output produced by METARs form (05 April 2020  23:09 UTC)
found at http://weather.rap.ucar.edu/surface/
 
KDCA 052252Z 14005KT 10SM FEW090 SCT120 BKN250 18/09 A3001 RMK AO2 SLP162 T01830094
KDCA 052152Z 17005KT 10SM SCT090 BKN120 BKN250 20/09 A3000 RMK AO2 SLP159 T02000089
KDCA 052052Z 14004KT 10SM BKN090 BKN100 19/09 A3001 RMK AO2 SLP164 VIRGA VC E T01940089 56018
KDCA 051952Z 16006KT 10SM BKN100 BKN120 18/09 A3002 RMK AO2 SLP165 T01830094
KDCA 051852Z 17006KT 10SM BKN110 19/08 A3004 RMK AO2 SLP172 T01890083
KDCA 051752Z 17007KT 10SM FEW007 BKN110 BKN250 18/09 A3007 RMK AO2 SLP181 T01780089 10183 20094 58015
KDCA 051652Z 20010KT 10SM FEW005 BKN110 BKN250 18/08 A3009 RMK AO2 SLP189 T01780078
KDCA 051552Z 16009KT 10SM FEW005 BKN110 BKN250 16/09 A3010 RMK AO2 SLP192 T01560089
KDCA 051549Z 17008KT 10SM FEW005 BKN110 BKN250 16/09 A3010 RMK AO2
KDCA 051452Z 18006KT 10SM BKN110 BKN250 13/09 A3011 RMK AO2 SLP196 T01330089 51004
KDCA 051352Z 17008KT 10SM FEW065 BKN100 BKN250 12/09 A3011 RMK AO2 SLP196 T01170089
KDCA 051252Z 18007KT 10SM FEW065 BKN100 BKN250 09/08 A3011 RMK AO2 SLP195 T00940083
KDCA 051202Z 19007KT 10SM FEW006 SCT065 SCT250 09/08 A3010 RMK AO2 T00940083
KDCA 051152Z 18007KT 10SM FEW065 SCT250 09/08 A3010 RMK AO2 SLP192 T00940083 10100 20083 53009
KDCA 051052Z 20006KT 10SM FEW010 FEW065 SCT250 08/07 A3009 RMK AO2 SLP188 T00830072
KDCA 050952Z 19006KT 10SM FEW110 BKN250 08/07 A3008 RMK AO2 SLP185 T00830072
KDCA 050852Z 19006KT 10SM FEW110 BKN250 09/07 A3007 RMK AO2 SLP183 T00890072 55001
KDCA 050752Z 00000KT 10SM SCT250 09/08 A3007 RMK AO2 SLP182 T00940078
KDCA 050652Z 19004KT 10SM FEW050 BKN250 10/08 A3007 RMK AO2 SLP183 T01000078
KDCA 050552Z 22003KT 9SM FEW050 BKN250 10/07 A3008 RMK AO2 SLP184 T01000067 10139 20100 58000
KDCA 050452Z 21003KT 10SM OVC050 11/07 A3007 RMK AO2 SLP184 T01060067 401560100
KDCA 050352Z 21003KT 10SM BKN050 11/07 A3008 RMK AO2 SLP186 T01060067
KDCA 050252Z 00000KT 10SM BKN050 12/07 A3008 RMK AO2 SLP184 T01170072 51018
KDCA 050152Z 20005KT 10SM SCT050 11/07 A3007 RMK AO2 SLP183 T01110067
KDCA 050113Z 19003KT 10SM FEW048 12/07 A3006 RMK AO2 T01220067
KDCA 050052Z 12007KT 10SM BKN046 13/07 A3005 RMK AO2 SLP175 T01280072
KDCA 042352Z 11005KT 10SM BKN050 14/07 A3002 RMK AO2 SLP166 T01390072 10150 20139 50004
KDCA 042252Z 00000KT 10SM BKN049 15/06 A3002 RMK AO2 SLP167 T01500061
KDCA 042152Z 06003KT 10SM OVC045 14/07 A3001 RMK AO2 SLP164 BINOVC S-W T01440072
KDCA 042052Z 02005KT 10SM OVC043 15/06 A3001 RMK AO2 SLP162 T01500061 56004
KDCA 041952Z 00000KT 10SM OVC041 14/07 A3001 RMK AO2 SLP162 T01440067
KDCA 041852Z 03006KT 10SM OVC039 14/07 A3002 RMK AO2 SLP165 T01440067
KDCA 041752Z 06007KT 10SM OVC042 14/07 A3002 RMK AO2 SLP166 60000 T01440067 10156 20100 56007
KDCA 041652Z 04007KT 10SM OVC040 14/06 A3002 RMK AO2 SLP167 T01440061
KDCA 041552Z 03004KT 10SM BKN033 BKN042 OVC050 14/07 A3004 RMK AO2 SLP172 T01440067
KDCA 041452Z 36007KT 10SM FEW020 OVC040 13/07 A3004 RMK AO2 SLP173 60000 T01330067 51016
KDCA 041352Z 35008KT 10SM FEW020 OVC038 12/06 A3004 RMK AO2 SLP170 T01170061
KDCA 041252Z 36009KT 10SM OVC039 11/06 A3001 RMK AO2 RAB06E23 SLP163 BINOVC P0000 T01110061
KDCA 041152Z 02009KT 10SM OVC043 11/05 A3000 RMK AO2 SLP157 BINOVC T01060050 10111 20100 53016
KDCA 041052Z 36011KT 10SM OVC045 11/04 A2998 RMK AO2 SLP151 T01060039
KDCA 040952Z 36011KT 10SM OVC047 11/03 A2996 RMK AO2 SLP145 T01060033
KDCA 040852Z 34009KT 10SM OVC050 10/03 A2995 RMK AO2 SLP141 T01000033 53004
KDCA 040752Z 35008KT 10SM OVC050 11/04 A2994 RMK AO2 SLP138 T01060039
KDCA 040652Z 36011KT 10SM OVC055 11/04 A2994 RMK AO2 SLP138 T01110039
KDCA 040552Z 36011KT 10SM BKN060 11/03 A2994 RMK AO2 SLP138 T01060033 10156 20106 53004
KDCA 040452Z 36011KT 10SM OVC065 12/03 A2993 RMK AO2 SLP135 T01170033 402000083
KDCA 040352Z 02013KT 10SM OVC075 12/03 A2993 RMK AO2 SLP135 T01220033
KDCA 040252Z 36013KT 10SM BKN070 12/04 A2993 RMK AO2 SLP134 T01220039 51027
KDCA 040152Z 01017KT 10SM OVC075 13/04 A2991 RMK AO2 SLP130 T01330039
KDCA 040052Z 02015KT 10SM OVC080 14/04 A2989 RMK AO2 SLP120 T01440039
KDCA 032352Z 02013KT 10SM BKN080 BKN200 16/03 A2985 RMK AO2 WSHFT 2301 SLP107 T01560028 10200 20156 53023
KDCA 032316Z COR 03012KT 10SM BKN080 BKN200 17/03 A2982 RMK AO2 WSHFT 2301 T01670028
KDCA 032252Z 36015KT 10SM BKN080 BKN200 18/02 A2981 RMK AO2 PK WND 35027/2155 SLP096 T01780017
KDCA 032152Z 35020G24KT 10SM SCT080 BKN200 19/02 A2979 RMK AO2 PK WND 35029/2127 SLP088 T01890022
KDCA 032052Z 35016G24KT 10SM SCT070 BKN250 19/02 A2978 RMK AO2 PK WND 35028/2029 SLP083 T01940017 56004
KDCA 031952Z 32019G25KT 10SM SCT070 SCT250 19/02 A2978 RMK AO2 PK WND 32028/1925 SLP084 T01890017
KDCA 031852Z 32017G26KT 10SM SCT065 SCT250 18/01 A2978 RMK AO2 PK WND 36029/1835 SLP084 T01830011
KDCA 031752Z 32022G29KT 10SM SCT070 SCT110 SCT250 18/01 A2979 RMK AO2 PK WND 31031/1718 SLP087 T01780006 10178 20094 56012
KDCA 031652Z 32024G35KT 10SM CLR 17/00 A2980 RMK AO2 PK WND 34036/1600 SLP091 T01670000
KDCA 031552Z 35017G32KT 10SM FEW070 SCT110 SCT250 16/M01 A2981 RMK AO2 PK WND 32034/1535 SLP095 T01561011
KDCA 031452Z 32018G31KT 10SM FEW070 SCT110 SCT250 14/M01 A2982 RMK AO2 PK WND 33034/1426 SLP099 T01391011 58003
KDCA 031352Z 33019G23KT 10SM FEW110 SCT250 12/M02 A2983 RMK AO2 PK WND 32027/1304 SLP101 T01221022
KDCA 031252Z 32017G30KT 10SM FEW110 SCT250 11/M04 A2983 RMK AO2 PK WND 32030/1247 SLP103 T01061039
KDCA 031152Z 30012KT 10SM FEW110 SCT250 09/M05 A2983 RMK AO2 SLP102 T00941050 10111 20083 53008